createdAt,value
2018-01-06T00:00:58.963Z,7.50
2018-01-06T00:03:26.469Z,7.50
2018-01-06T00:05:54.140Z,7.50
2018-01-06T00:08:22.548Z,7.50
2018-01-06T00:10:50.202Z,7.50
2018-01-06T00:13:17.844Z,7.50
2018-01-06T00:15:45.417Z,7.50
2018-01-06T00:18:14.707Z,7.50
2018-01-06T00:20:42.310Z,7.50
2018-01-06T00:23:10.749Z,7.50
2018-01-06T00:25:38.432Z,7.50
2018-01-06T00:28:06.098Z,7.50
2018-01-06T00:30:34.514Z,7.50
2018-01-06T00:33:02.155Z,7.50
2018-01-06T00:35:29.728Z,7.50
2018-01-06T00:37:57.293Z,7.50
2018-01-06T00:40:24.779Z,7.50
2018-01-06T00:42:52.435Z,7.50
2018-01-06T00:45:20.045Z,7.50
2018-01-06T00:47:47.554Z,7.40
2018-01-06T00:50:15.100Z,7.50
2018-01-06T00:52:42.611Z,7.50
2018-01-06T00:55:10.936Z,7.50
2018-01-06T00:57:38.490Z,7.50
2018-01-06T01:00:06.008Z,7.50
2018-01-06T01:02:34.314Z,7.50
2018-01-06T01:05:01.797Z,7.50
2018-01-06T01:07:29.285Z,7.50
2018-01-06T01:09:56.770Z,7.50
2018-01-06T01:12:24.274Z,7.50
2018-01-06T01:14:51.752Z,7.50
2018-01-06T01:17:19.242Z,7.50
2018-01-06T01:19:46.763Z,7.50
2018-01-06T01:22:14.295Z,7.50
2018-01-06T01:24:41.797Z,7.50
2018-01-06T01:27:10.066Z,7.50
2018-01-06T01:29:37.571Z,7.50
2018-01-06T01:32:05.075Z,7.50
2018-01-06T01:34:32.561Z,7.50
2018-01-06T01:37:00.821Z,7.50
2018-01-06T01:39:29.079Z,7.50
2018-01-06T01:41:56.534Z,7.40
2018-01-06T01:44:23.985Z,7.40
2018-01-06T01:46:51.488Z,7.40
2018-01-06T01:49:18.978Z,7.40
2018-01-06T01:51:46.493Z,7.40
2018-01-06T01:54:14.739Z,7.40
2018-01-06T01:56:42.261Z,7.40
2018-01-06T01:59:09.757Z,7.40
2018-01-06T02:01:37.228Z,7.40
2018-01-06T02:04:05.545Z,7.40
2018-01-06T02:06:33.059Z,7.40
2018-01-06T02:09:00.570Z,7.40
2018-01-06T02:11:28.090Z,7.30
2018-01-06T02:13:56.291Z,7.40
2018-01-06T02:16:23.971Z,7.40
2018-01-06T02:18:51.555Z,7.40
2018-01-06T02:21:19.144Z,7.30
2018-01-06T02:23:47.465Z,7.40
2018-01-06T02:26:15.897Z,7.40
2018-01-06T02:28:44.229Z,7.40
2018-01-06T02:31:11.831Z,7.40
2018-01-06T02:33:40.160Z,7.30
2018-01-06T02:36:08.615Z,7.30
2018-01-06T02:38:36.214Z,7.30
2018-01-06T02:41:07.481Z,7.30
2018-01-06T02:43:35.005Z,7.30
2018-01-06T02:46:02.553Z,7.30
2018-01-06T02:48:30.078Z,7.20
2018-01-06T02:50:58.395Z,7.20
2018-01-06T02:53:25.962Z,7.20
2018-01-06T02:55:54.324Z,7.20
2018-01-06T02:58:22.761Z,7.20
2018-01-06T03:00:51.146Z,7.10
2018-01-06T03:03:19.505Z,7.10
2018-01-06T03:05:48.470Z,7.10
2018-01-06T03:08:16.057Z,7.10
2018-01-06T03:10:43.553Z,7.10
2018-01-06T03:13:11.099Z,7.10
2018-01-06T03:15:38.620Z,7.10
2018-01-06T03:18:07.039Z,7.10
2018-01-06T03:20:34.561Z,7.10
2018-01-06T03:23:02.080Z,7.10
2018-01-06T03:25:29.709Z,7.10
2018-01-06T03:27:57.309Z,7.10
2018-01-06T03:30:24.915Z,7.10
2018-01-06T03:32:53.189Z,7.10
2018-01-06T03:35:21.531Z,7.00
2018-01-06T03:37:50.013Z,7.00
2018-01-06T03:40:17.545Z,7.00
2018-01-06T03:42:45.038Z,7.00
2018-01-06T03:45:12.690Z,7.00
2018-01-06T03:47:40.258Z,7.00
2018-01-06T03:50:08.723Z,7.00
2018-01-06T03:52:36.975Z,7.00
2018-01-06T03:55:06.365Z,7.00
2018-01-06T03:57:33.923Z,6.90
2018-01-06T04:00:01.522Z,6.90
2018-01-06T04:02:29.059Z,6.90
2018-01-06T04:04:56.650Z,6.90
2018-01-06T04:07:24.958Z,6.90
2018-01-06T04:09:52.524Z,6.90
2018-01-06T04:12:21.750Z,6.90
2018-01-06T04:14:49.314Z,6.90
2018-01-06T04:17:16.867Z,6.90
2018-01-06T04:19:44.427Z,6.90
2018-01-06T04:22:11.994Z,6.90
2018-01-06T04:24:39.536Z,6.90
2018-01-06T04:27:07.069Z,6.90
2018-01-06T04:29:35.393Z,6.90
2018-01-06T04:32:02.959Z,6.90
2018-01-06T04:34:35.724Z,6.90
2018-01-06T04:37:03.294Z,6.90
2018-01-06T04:39:31.536Z,6.80
2018-01-06T04:41:59.890Z,6.60
2018-01-06T04:44:27.434Z,6.50
2018-01-06T04:46:55.829Z,6.50
2018-01-06T04:49:25.422Z,6.50
2018-01-06T04:51:52.942Z,6.40
2018-01-06T04:54:20.520Z,6.50
2018-01-06T04:56:48.769Z,6.50
2018-01-06T04:59:17.487Z,6.60
2018-01-06T05:01:45.001Z,6.60
2018-01-06T05:04:12.539Z,6.50
2018-01-06T05:06:41.958Z,6.50
2018-01-06T05:09:09.475Z,6.40
2018-01-06T05:11:37.073Z,6.40
2018-01-06T05:14:05.350Z,6.30
2018-01-06T05:16:34.786Z,6.40
2018-01-06T05:19:02.388Z,6.40
2018-01-06T05:21:29.920Z,6.40
2018-01-06T05:23:57.546Z,6.30
2018-01-06T05:26:26.038Z,6.30
2018-01-06T05:28:53.622Z,6.40
2018-01-06T05:31:21.783Z,6.40
2018-01-06T05:33:50.176Z,6.40
2018-01-06T05:36:17.750Z,6.30
2018-01-06T05:38:45.286Z,6.30
2018-01-06T05:41:13.482Z,6.20
2018-01-06T05:43:41.035Z,6.20
2018-01-06T05:46:08.577Z,6.20
2018-01-06T05:48:37.307Z,6.20
2018-01-06T05:51:05.621Z,6.20
2018-01-06T05:53:34.553Z,6.20
2018-01-06T05:56:02.128Z,6.20
2018-01-06T05:58:30.479Z,6.20
2018-01-06T06:00:58.084Z,6.20
2018-01-06T06:03:26.262Z,6.20
2018-01-06T06:05:53.902Z,6.30
2018-01-06T06:08:22.328Z,6.30
2018-01-06T06:10:51.289Z,6.30
2018-01-06T06:13:19.623Z,6.30
2018-01-06T06:15:47.155Z,6.30
2018-01-06T06:18:15.107Z,6.30
2018-01-06T06:20:44.150Z,6.30
2018-01-06T06:23:12.886Z,6.30
2018-01-06T06:25:41.306Z,6.30
2018-01-06T06:28:08.923Z,6.20
2018-01-06T06:30:37.071Z,6.20
2018-01-06T06:33:05.954Z,6.20
2018-01-06T06:35:34.332Z,6.30
2018-01-06T06:38:01.885Z,6.20
2018-01-06T06:40:29.406Z,6.20
2018-01-06T06:42:56.996Z,6.20
2018-01-06T06:45:24.524Z,6.20
2018-01-06T06:47:52.091Z,6.10
2018-01-06T06:50:20.603Z,6.00
2018-01-06T06:52:48.898Z,6.10
2018-01-06T06:55:17.196Z,6.10
2018-01-06T06:57:44.737Z,6.10
2018-01-06T07:00:13.006Z,6.10
2018-01-06T07:02:41.286Z,6.10
2018-01-06T07:05:09.588Z,6.00
2018-01-06T07:07:37.110Z,6.00
2018-01-06T07:10:04.647Z,6.00
2018-01-06T07:12:32.203Z,6.00
2018-01-06T07:14:59.721Z,6.00
2018-01-06T07:17:27.230Z,5.90
2018-01-06T07:19:54.894Z,5.90
2018-01-06T07:22:22.409Z,5.90
2018-01-06T07:24:49.948Z,5.90
2018-01-06T07:27:18.280Z,5.90
2018-01-06T07:29:45.826Z,5.90
2018-01-06T07:32:13.631Z,6.00
2018-01-06T07:34:41.946Z,6.10
2018-01-06T07:37:09.504Z,6.10
2018-01-06T07:39:37.034Z,6.10
2018-01-06T07:42:04.577Z,6.10
2018-01-06T07:44:32.083Z,6.10
2018-01-06T07:46:59.605Z,6.20
2018-01-06T07:49:27.954Z,6.20
2018-01-06T07:51:55.496Z,6.20
2018-01-06T07:54:23.092Z,6.20
2018-01-06T07:56:51.379Z,6.30
2018-01-06T07:59:19.679Z,6.30
2018-01-06T08:01:47.211Z,6.30
2018-01-06T08:04:15.502Z,6.30
2018-01-06T08:06:43.056Z,6.30
2018-01-06T08:09:10.622Z,6.10
2018-01-06T08:11:38.158Z,6.10
2018-01-06T08:14:06.447Z,5.90
2018-01-06T08:16:34.725Z,5.90
2018-01-06T08:19:03.009Z,5.90
2018-01-06T08:21:30.598Z,5.90
2018-01-06T08:23:58.112Z,5.90
2018-01-06T08:26:26.442Z,5.90
2018-01-06T08:28:53.958Z,5.90
2018-01-06T08:31:21.520Z,6.10
2018-01-06T08:33:49.107Z,6.10
2018-01-06T08:36:16.651Z,6.20
2018-01-06T08:38:44.166Z,6.20
2018-01-06T08:41:11.725Z,6.30
2018-01-06T08:43:39.229Z,6.30
2018-01-06T08:46:06.770Z,6.30
2018-01-06T08:48:34.286Z,6.40
2018-01-06T08:51:02.994Z,6.30
2018-01-06T08:53:30.520Z,6.30
2018-01-06T08:55:58.084Z,6.30
2018-01-06T08:58:26.229Z,6.30
2018-01-06T09:00:53.733Z,6.40
2018-01-06T09:03:22.050Z,6.50
2018-01-06T09:05:49.568Z,6.70
2018-01-06T09:08:18.144Z,6.60
2018-01-06T09:10:45.714Z,6.80
2018-01-06T09:13:14.136Z,6.60
2018-01-06T09:15:41.648Z,6.60
2018-01-06T09:18:09.179Z,6.70
2018-01-06T09:20:36.727Z,6.70
2018-01-06T09:23:04.277Z,6.80
2018-01-06T09:25:31.790Z,6.80
2018-01-06T09:27:59.352Z,6.90
2018-01-06T09:30:29.233Z,7.00
2018-01-06T09:32:56.800Z,6.90
2018-01-06T09:35:25.166Z,7.10
2018-01-06T09:37:52.711Z,7.10
2018-01-06T09:40:20.269Z,7.20
2018-01-06T09:42:47.848Z,7.40
2018-01-06T09:45:15.339Z,7.40
2018-01-06T09:47:43.663Z,7.30
2018-01-06T09:50:11.180Z,7.30
2018-01-06T09:52:39.536Z,7.40
2018-01-06T09:55:07.095Z,7.40
2018-01-06T09:57:34.658Z,7.60
2018-01-06T10:00:02.960Z,7.70
2018-01-06T10:02:31.302Z,7.80
2018-01-06T10:04:58.900Z,7.80
2018-01-06T10:07:27.437Z,7.60
2018-01-06T10:09:54.995Z,7.60
2018-01-06T10:12:24.256Z,7.60
2018-01-06T10:14:51.810Z,7.60
2018-01-06T10:17:19.454Z,7.60
2018-01-06T10:19:47.616Z,7.80
2018-01-06T10:22:16.742Z,8.00
2018-01-06T10:24:45.058Z,8.00
2018-01-06T10:27:13.587Z,8.10
2018-01-06T10:29:41.740Z,8.20
2018-01-06T10:32:10.069Z,8.30
2018-01-06T10:34:45.344Z,8.30
2018-01-06T10:37:12.849Z,8.30
2018-01-06T10:39:40.357Z,8.40
2018-01-06T10:42:07.874Z,8.40
2018-01-06T10:44:35.356Z,8.40
2018-01-06T10:47:02.846Z,8.20
2018-01-06T10:49:30.289Z,8.20
2018-01-06T10:51:57.748Z,8.20
2018-01-06T10:54:25.259Z,8.10
2018-01-06T10:56:52.850Z,8.10
2018-01-06T10:59:20.362Z,8.10
2018-01-06T11:01:53.619Z,8.20
2018-01-06T11:04:21.142Z,8.20
2018-01-06T11:06:48.717Z,8.30
2018-01-06T11:09:16.218Z,8.40
2018-01-06T11:11:43.792Z,8.30
2018-01-06T11:14:11.321Z,8.20
2018-01-06T11:16:39.621Z,8.00
2018-01-06T11:19:07.130Z,8.00
2018-01-06T11:21:34.638Z,7.90
2018-01-06T11:24:02.157Z,7.90
2018-01-06T11:26:29.688Z,7.80
2018-01-06T11:28:57.176Z,7.60
2018-01-06T11:31:24.626Z,7.60
2018-01-06T11:33:52.148Z,7.60
2018-01-06T11:36:19.635Z,7.70
2018-01-06T11:38:47.080Z,7.60
2018-01-06T11:41:14.554Z,7.60
2018-01-06T11:43:42.018Z,7.80
2018-01-06T11:46:09.478Z,7.90
2018-01-06T11:48:36.913Z,8.00
2018-01-06T11:51:04.349Z,8.00
2018-01-06T11:53:31.801Z,7.90
2018-01-06T11:55:59.237Z,7.90
2018-01-06T11:58:26.677Z,7.90
2018-01-06T12:00:54.889Z,8.00
2018-01-06T12:03:22.329Z,8.00
2018-01-06T12:05:49.777Z,7.90
2018-01-06T12:08:17.221Z,7.80
2018-01-06T12:10:45.428Z,7.70
2018-01-06T12:13:12.864Z,7.70
2018-01-06T12:15:40.307Z,7.70
2018-01-06T12:18:08.512Z,7.70
2018-01-06T12:20:35.964Z,7.70
2018-01-06T12:23:03.408Z,7.80
2018-01-06T12:25:30.858Z,7.90
2018-01-06T12:27:59.074Z,7.80
2018-01-06T12:30:28.324Z,7.80
2018-01-06T12:32:56.659Z,7.60
2018-01-06T12:35:24.233Z,7.60
2018-01-06T12:37:51.772Z,7.60
2018-01-06T12:40:19.378Z,7.60
2018-01-06T12:45:19.400Z,7.60
2018-01-06T12:47:46.966Z,7.70
2018-01-06T12:50:15.346Z,7.70
2018-01-06T12:52:51.676Z,7.60
2018-01-06T12:55:19.382Z,7.60
2018-01-06T12:57:47.824Z,7.50
2018-01-06T13:00:15.393Z,7.50
2018-01-06T13:02:43.031Z,7.40
2018-01-06T13:05:16.266Z,7.40
2018-01-06T13:07:47.407Z,7.40
2018-01-06T13:10:15.052Z,7.40
2018-01-06T13:12:42.982Z,7.40
2018-01-06T13:15:10.518Z,7.30
2018-01-06T13:17:38.081Z,7.30
2018-01-06T13:20:05.606Z,7.30
2018-01-06T13:22:33.900Z,7.50
2018-01-06T13:25:01.477Z,7.40
2018-01-06T13:27:28.969Z,7.40
2018-01-06T13:29:57.680Z,7.40
2018-01-06T13:32:26.713Z,7.50
2018-01-06T13:34:54.310Z,7.50
2018-01-06T13:37:24.023Z,7.60
2018-01-06T13:39:54.343Z,7.60
2018-01-06T13:42:32.201Z,7.50
2018-01-06T13:45:00.496Z,7.60
2018-01-06T13:47:28.053Z,7.50
2018-01-06T13:49:55.603Z,7.60
2018-01-06T13:52:24.019Z,7.50
2018-01-06T13:54:51.625Z,7.50
2018-01-06T13:57:19.211Z,7.50
2018-01-06T13:59:48.083Z,7.60
2018-01-06T14:02:15.622Z,7.60
2018-01-06T14:04:49.141Z,7.60
2018-01-06T14:07:16.683Z,7.60
2018-01-06T14:09:45.770Z,7.80
2018-01-06T14:12:14.052Z,7.80
2018-01-06T14:14:44.450Z,7.80
2018-01-06T14:17:12.790Z,7.80
2018-01-06T14:19:40.324Z,7.80
2018-01-06T14:22:08.482Z,7.80
2018-01-06T14:24:37.022Z,7.70
2018-01-06T14:27:04.609Z,7.70
2018-01-06T14:29:32.137Z,7.60
2018-01-06T14:31:59.753Z,7.60
2018-01-06T14:34:28.174Z,7.50
2018-01-06T14:36:56.261Z,7.50
2018-01-06T14:39:23.892Z,7.50
2018-01-06T14:41:54.222Z,7.40
2018-01-06T14:44:24.041Z,7.40
2018-01-06T14:46:53.285Z,7.40
2018-01-06T14:49:21.651Z,7.30
2018-01-06T14:51:49.266Z,7.30
2018-01-06T14:54:16.787Z,7.30
2018-01-06T14:56:45.964Z,7.30
2018-01-06T14:59:13.500Z,7.30
2018-01-06T15:01:41.039Z,7.30
2018-01-06T15:04:08.562Z,7.20
2018-01-06T15:06:38.982Z,7.30
2018-01-06T15:09:08.205Z,7.30
2018-01-06T15:11:36.311Z,7.30
2018-01-06T15:14:03.834Z,7.30
2018-01-06T15:16:31.428Z,7.20
2018-01-06T15:18:58.989Z,7.20
2018-01-06T15:21:26.631Z,7.20
2018-01-06T15:23:57.940Z,7.30
2018-01-06T15:26:26.300Z,7.20
2018-01-06T15:28:53.857Z,7.20
2018-01-06T15:31:21.441Z,7.10
2018-01-06T15:33:49.795Z,7.10
2018-01-06T15:36:18.165Z,7.10
2018-01-06T15:38:48.690Z,7.10
2018-01-06T15:41:17.408Z,7.10
2018-01-06T15:43:52.050Z,7.10
2018-01-06T15:46:19.615Z,7.10
2018-01-06T15:48:49.353Z,7.10
2018-01-06T15:51:18.072Z,7.00
2018-01-06T15:53:45.725Z,7.00
2018-01-06T15:56:13.251Z,7.00
2018-01-06T15:58:44.476Z,7.10
2018-01-06T16:01:12.072Z,7.10
2018-01-06T16:03:39.684Z,7.10
2018-01-06T16:06:07.342Z,7.10
2018-01-06T16:08:35.973Z,7.10
2018-01-06T16:11:03.522Z,7.10
2018-01-06T16:13:31.057Z,7.10
2018-01-06T16:15:58.598Z,7.00
2018-01-06T16:18:27.249Z,7.00
2018-01-06T16:20:54.803Z,7.00
2018-01-06T16:23:22.404Z,7.00
2018-01-06T16:25:50.762Z,7.00
2018-01-06T16:28:18.303Z,7.00
2018-01-06T16:30:45.874Z,7.00
2018-01-06T16:33:13.408Z,7.00
2018-01-06T16:35:41.008Z,7.00
2018-01-06T16:38:08.648Z,7.00
2018-01-06T16:40:36.269Z,7.00
2018-01-06T16:43:03.919Z,7.00
2018-01-06T16:45:31.446Z,7.00
2018-01-06T16:47:59.026Z,6.90
2018-01-06T16:50:26.575Z,7.00
2018-01-06T16:52:54.903Z,7.00
2018-01-06T16:55:22.437Z,7.00
2018-01-06T16:57:49.939Z,7.10
2018-01-06T17:00:17.544Z,7.10
2018-01-06T17:02:46.340Z,7.20
2018-01-06T17:05:13.946Z,7.10
2018-01-06T17:07:41.556Z,7.10
2018-01-06T17:10:09.150Z,7.00
2018-01-06T17:12:36.803Z,7.00
2018-01-06T17:15:04.346Z,7.00
2018-01-06T17:17:31.949Z,6.90
2018-01-06T17:19:59.500Z,6.80
2018-01-06T17:22:27.054Z,6.80
2018-01-06T17:24:54.631Z,6.80
2018-01-06T17:27:22.154Z,6.80
2018-01-06T17:29:49.723Z,6.70
2018-01-06T17:32:17.236Z,6.70
2018-01-06T17:34:45.626Z,6.70
2018-01-06T17:37:13.142Z,6.70
2018-01-06T17:39:41.882Z,6.70
2018-01-06T17:42:09.411Z,6.70
2018-01-06T17:44:37.744Z,6.80
2018-01-06T17:47:05.278Z,6.70
2018-01-06T17:49:32.927Z,6.70
2018-01-06T17:52:00.524Z,6.70
2018-01-06T17:54:28.063Z,6.70
2018-01-06T17:56:55.641Z,6.70
2018-01-06T17:59:23.151Z,6.80
2018-01-06T18:01:51.426Z,6.80
2018-01-06T18:04:19.745Z,6.70
2018-01-06T18:06:48.216Z,6.70
2018-01-06T18:09:15.764Z,6.70
2018-01-06T18:11:43.350Z,6.70
2018-01-06T18:14:10.894Z,6.80
2018-01-06T18:16:38.469Z,6.80
2018-01-06T18:19:06.020Z,6.80
2018-01-06T18:21:33.591Z,6.80
2018-01-06T18:24:01.118Z,6.80
2018-01-06T18:26:28.748Z,6.80
2018-01-06T18:28:57.101Z,6.80
2018-01-06T18:31:24.602Z,6.80
2018-01-06T18:33:52.213Z,6.80
2018-01-06T18:36:19.781Z,6.80
2018-01-06T18:38:48.182Z,6.80
2018-01-06T18:41:16.535Z,6.80
2018-01-06T18:43:44.956Z,6.70
2018-01-06T18:46:12.579Z,6.80
2018-01-06T18:48:40.083Z,6.80
2018-01-06T18:51:07.568Z,6.80
2018-01-06T18:53:35.063Z,6.80
2018-01-06T18:56:02.547Z,6.80
2018-01-06T18:58:30.812Z,6.90
2018-01-06T19:00:59.068Z,6.80
2018-01-06T19:03:26.559Z,6.80
2018-01-06T19:05:54.812Z,6.90
2018-01-06T19:08:22.291Z,6.80
2018-01-06T19:10:50.625Z,6.90
2018-01-06T19:13:18.170Z,6.90
2018-01-06T19:15:45.701Z,7.00
2018-01-06T19:18:13.413Z,7.00
2018-01-06T19:20:40.948Z,7.00
2018-01-06T19:23:08.485Z,6.90
2018-01-06T19:25:36.021Z,6.80
2018-01-06T19:28:03.582Z,6.80
2018-01-06T19:30:31.140Z,6.70
2018-01-06T19:32:58.712Z,6.70
2018-01-06T19:35:26.233Z,6.70
2018-01-06T19:37:53.737Z,6.70
2018-01-06T19:40:21.218Z,6.70
2018-01-06T19:42:48.883Z,6.70
2018-01-06T19:45:16.410Z,6.70
2018-01-06T19:47:44.569Z,6.60
2018-01-06T19:50:12.101Z,6.70
2018-01-06T19:52:39.692Z,6.70
2018-01-06T19:55:07.252Z,6.70
2018-01-06T19:57:34.837Z,6.70
2018-01-06T20:00:02.382Z,6.70
2018-01-06T20:02:29.945Z,6.70
2018-01-06T20:04:57.502Z,6.70
2018-01-06T20:07:25.066Z,6.70
2018-01-06T20:09:52.623Z,6.70
2018-01-06T20:12:20.200Z,6.70
2018-01-06T20:14:47.784Z,6.70
2018-01-06T20:17:16.138Z,6.70
2018-01-06T20:19:43.701Z,6.70
2018-01-06T20:22:11.257Z,6.80
2018-01-06T20:24:38.850Z,6.70
2018-01-06T20:27:06.423Z,6.70
2018-01-06T20:29:34.006Z,6.70
2018-01-06T20:32:01.584Z,6.70
2018-01-06T20:34:29.240Z,6.70
2018-01-06T20:36:57.061Z,6.70
2018-01-06T20:39:24.629Z,6.80
2018-01-06T20:41:52.211Z,6.70
2018-01-06T20:44:19.841Z,6.70
2018-01-06T20:46:48.199Z,6.80
2018-01-06T20:49:16.610Z,6.80
2018-01-06T20:51:44.209Z,6.80
2018-01-06T20:54:11.788Z,6.80
2018-01-06T20:56:39.391Z,6.80
2018-01-06T20:59:07.006Z,6.80
2018-01-06T21:01:34.679Z,6.80
2018-01-06T21:04:02.280Z,6.80
2018-01-06T21:06:29.864Z,6.90
2018-01-06T21:08:57.437Z,6.90
2018-01-06T21:11:25.827Z,6.80
2018-01-06T21:13:54.227Z,6.80
2018-01-06T21:16:21.859Z,6.80
2018-01-06T21:18:49.450Z,6.80
2018-01-06T21:21:17.237Z,6.80
2018-01-06T21:23:44.823Z,6.80
2018-01-06T21:26:12.513Z,6.80
2018-01-06T21:28:40.197Z,6.80
2018-01-06T21:31:08.618Z,6.80
2018-01-06T21:33:36.232Z,6.80
2018-01-06T21:36:03.807Z,6.80
2018-01-06T21:38:32.180Z,6.80
2018-01-06T21:41:00.585Z,6.80
2018-01-06T21:43:28.237Z,6.80
2018-01-06T21:45:56.573Z,6.80
2018-01-06T21:48:24.199Z,6.80
2018-01-06T21:50:51.789Z,6.80
2018-01-06T21:53:19.408Z,6.80
2018-01-06T21:55:47.010Z,6.80
2018-01-06T21:58:14.674Z,6.80
2018-01-06T22:00:42.317Z,6.80
2018-01-06T22:03:09.916Z,6.80
2018-01-06T22:05:37.497Z,6.70
2018-01-06T22:08:05.067Z,6.80
2018-01-06T22:10:32.657Z,6.80
2018-01-06T22:13:00.202Z,6.80
2018-01-06T22:15:27.790Z,6.80
2018-01-06T22:17:56.596Z,6.80
2018-01-06T22:20:24.153Z,6.80
2018-01-06T22:22:51.733Z,6.90
2018-01-06T22:25:20.086Z,6.90
2018-01-06T22:27:47.657Z,6.90
2018-01-06T22:30:15.210Z,6.90
2018-01-06T22:32:42.782Z,6.80
2018-01-06T22:35:11.112Z,6.90
2018-01-06T22:37:38.697Z,6.90
2018-01-06T22:40:06.302Z,6.80
2018-01-06T22:42:33.887Z,6.80
2018-01-06T22:45:01.446Z,6.80
2018-01-06T22:47:28.997Z,6.80
2018-01-06T22:49:56.545Z,6.80
2018-01-06T22:52:24.048Z,6.80
2018-01-06T22:54:53.328Z,6.80
2018-01-06T22:57:20.985Z,6.80
2018-01-06T22:59:48.586Z,6.80
2018-01-06T23:02:16.614Z,6.80
2018-01-06T23:04:44.977Z,6.90
2018-01-06T23:07:12.605Z,6.90
2018-01-06T23:09:40.973Z,6.90
2018-01-06T23:12:13.156Z,6.90
2018-01-06T23:14:42.014Z,6.90
2018-01-06T23:17:09.663Z,7.00
2018-01-06T23:19:37.357Z,7.00
2018-01-06T23:22:05.816Z,6.90
2018-01-06T23:24:33.419Z,6.90
2018-01-06T23:27:01.151Z,6.90
2018-01-06T23:29:29.607Z,7.00
2018-01-06T23:31:57.380Z,7.00
2018-01-06T23:34:26.473Z,7.00
2018-01-06T23:36:56.267Z,7.00
2018-01-06T23:39:23.906Z,7.00
2018-01-06T23:41:51.510Z,7.00
2018-01-06T23:44:19.192Z,6.90
2018-01-06T23:46:47.597Z,6.90
2018-01-06T23:49:15.253Z,6.90
2018-01-06T23:51:43.338Z,6.90
2018-01-06T23:54:10.980Z,6.80
2018-01-06T23:56:40.480Z,6.80
2018-01-06T23:59:09.754Z,6.80
